sensor_id;sensor_type;location;lat;lon;timestamp;P1;durP1;ratioP1;P2;durP2;ratioP2
1140;SDS011;559;48.628;8.924;2023-12-20T00:02:55;54.28;;;51.58;;
1140;SDS011;559;48.628;8.924;2023-12-20T00:24:13;52.10;;;49.50;;
1140;SDS011;559;48.628;8.924;2023-12-20T00:37:57;55.45;;;52.65;;
1140;SDS011;559;48.628;8.924;2023-12-20T00:49:55;57.35;;;54.35;;
1140;SDS011;559;48.628;8.924;2023-12-20T00:55:53;57.95;;;54.85;;
1140;SDS011;559;48.628;8.924;2023-12-20T01:02:22;61.20;;;57.80;;
1140;SDS011;559;48.628;8.924;2023-12-20T01:05:40;61.53;;;58.10;;
1140;SDS011;559;48.628;8.924;2023-12-20T01:46:11;71.15;;;67.05;;
1140;SDS011;559;48.628;8.924;2023-12-20T01:50:27;72.60;;;68.40;;
1140;SDS011;559;48.628;8.924;2023-12-20T01:59:34;77.60;;;73.30;;
1140;SDS011;559;48.628;8.924;2023-12-20T02:03:11;78.65;;;74.35;;
1140;SDS011;559;48.628;8.924;2023-12-20T02:06:08;77.90;;;73.60;;
1140;SDS011;559;48.628;8.924;2023-12-20T02:11:59;77.32;;;73.03;;
1140;SDS011;559;48.628;8.924;2023-12-20T02:19:22;84.07;;;79.78;;
1140;SDS011;559;48.628;8.924;2023-12-20T02:33:10;72.28;;;68.07;;
1140;SDS011;559;48.628;8.924;2023-12-20T02:36:24;76.97;;;72.75;;
1140;SDS011;559;48.628;8.924;2023-12-20T02:50:27;81.97;;;77.85;;
1140;SDS011;559;48.628;8.924;2023-12-20T02:53:33;80.50;;;76.40;;
1140;SDS011;559;48.628;8.924;2023-12-20T02:57:00;80.95;;;76.85;;
1140;SDS011;559;48.628;8.924;2023-12-20T03:03:32;75.10;;;71.00;;
1140;SDS011;559;48.628;8.924;2023-12-20T03:10:19;75.65;;;71.65;;
1140;SDS011;559;48.628;8.924;2023-12-20T03:13:03;72.68;;;68.57;;
1140;SDS011;559;48.628;8.924;2023-12-20T03:15:52;70.05;;;66.03;;
1140;SDS011;559;48.628;8.924;2023-12-20T03:18:52;66.50;;;62.60;;
1140;SDS011;559;48.628;8.924;2023-12-20T03:25:13;66.15;;;62.45;;
1140;SDS011;559;48.628;8.924;2023-12-20T03:28:29;67.82;;;64.00;;
1140;SDS011;559;48.628;8.924;2023-12-20T03:32:04;68.50;;;64.60;;
1140;SDS011;559;48.628;8.924;2023-12-20T03:34:58;65.82;;;61.92;;
1140;SDS011;559;48.628;8.924;2023-12-20T03:37:50;67.25;;;63.45;;
1140;SDS011;559;48.628;8.924;2023-12-20T03:40:55;70.00;;;66.20;;
1140;SDS011;559;48.628;8.924;2023-12-20T03:53:56;64.57;;;60.88;;
1140;SDS011;559;48.628;8.924;2023-12-20T03:56:43;65.82;;;62.03;;
1140;SDS011;559;48.628;8.924;2023-12-20T04:06:01;66.72;;;62.75;;
1140;SDS011;559;48.628;8.924;2023-12-20T04:09:28;71.32;;;67.45;;
1140;SDS011;559;48.628;8.924;2023-12-20T04:36:11;69.60;;;65.60;;
1140;SDS011;559;48.628;8.924;2023-12-20T04:46:27;68.43;;;64.32;;
1140;SDS011;559;48.628;8.924;2023-12-20T04:48:53;62.83;;;59.03;;
1140;SDS011;559;48.628;8.924;2023-12-20T04:55:28;67.15;;;63.15;;
1140;SDS011;559;48.628;8.924;2023-12-20T04:57:57;62.55;;;58.55;;
1140;SDS011;559;48.628;8.924;2023-12-20T05:04:01;66.65;;;62.75;;
1140;SDS011;559;48.628;8.924;2023-12-20T05:06:48;65.93;;;62.03;;
1140;SDS011;559;48.628;8.924;2023-12-20T05:29:27;73.30;;;69.30;;
1140;SDS011;559;48.628;8.924;2023-12-20T05:31:54;76.32;;;72.22;;
1140;SDS011;559;48.628;8.924;2023-12-20T05:34:20;72.28;;;68.28;;
1140;SDS011;559;48.628;8.924;2023-12-20T05:36:46;74.18;;;69.97;;
1140;SDS011;559;48.628;8.924;2023-12-20T05:39:13;71.13;;;67.05;;
1140;SDS011;559;48.628;8.924;2023-12-20T05:41:39;72.57;;;68.47;;
1140;SDS011;559;48.628;8.924;2023-12-20T05:44:07;75.60;;;71.40;;
1140;SDS011;559;48.628;8.924;2023-12-20T05:46:35;71.70;;;67.65;;
1140;SDS011;559;48.628;8.924;2023-12-20T05:49:01;68.85;;;64.75;;
1140;SDS011;559;48.628;8.924;2023-12-20T05:51:28;72.82;;;68.63;;
1140;SDS011;559;48.628;8.924;2023-12-20T05:53:54;71.50;;;67.20;;
1140;SDS011;559;48.628;8.924;2023-12-20T05:56:21;70.70;;;66.30;;
1140;SDS011;559;48.628;8.924;2023-12-20T05:58:48;67.70;;;63.47;;
1140;SDS011;559;48.628;8.924;2023-12-20T06:01:15;72.82;;;68.43;;
1140;SDS011;559;48.628;8.924;2023-12-20T06:03:43;69.80;;;65.47;;
1140;SDS011;559;48.628;8.924;2023-12-20T06:06:11;70.05;;;65.75;;
1140;SDS011;559;48.628;8.924;2023-12-20T06:08:37;71.95;;;67.65;;
1140;SDS011;559;48.628;8.924;2023-12-20T06:11:04;79.30;;;74.72;;
1140;SDS011;559;48.628;8.924;2023-12-20T06:13:31;74.45;;;70.05;;
1140;SDS011;559;48.628;8.924;2023-12-20T06:15:57;75.13;;;70.43;;
1140;SDS011;559;48.628;8.924;2023-12-20T06:18:25;73.68;;;69.30;;
1140;SDS011;559;48.628;8.924;2023-12-20T06:20:52;74.57;;;70.07;;
1140;SDS011;559;48.628;8.924;2023-12-20T06:23:18;75.20;;;70.60;;
1140;SDS011;559;48.628;8.924;2023-12-20T06:25:45;73.75;;;69.25;;
1140;SDS011;559;48.628;8.924;2023-12-20T06:28:11;77.55;;;72.97;;
1140;SDS011;559;48.628;8.924;2023-12-20T06:30:39;77.13;;;72.63;;
1140;SDS011;559;48.628;8.924;2023-12-20T06:33:06;76.47;;;71.97;;
1140;SDS011;559;48.628;8.924;2023-12-20T06:35:36;76.68;;;72.18;;
1140;SDS011;559;48.628;8.924;2023-12-20T06:38:02;75.22;;;70.78;;
1140;SDS011;559;48.628;8.924;2023-12-20T06:40:29;78.30;;;73.70;;
1140;SDS011;559;48.628;8.924;2023-12-20T06:42:56;71.88;;;67.40;;
1140;SDS011;559;48.628;8.924;2023-12-20T06:45:22;80.13;;;75.65;;
1140;SDS011;559;48.628;8.924;2023-12-20T06:47:49;75.47;;;71.07;;
1140;SDS011;559;48.628;8.924;2023-12-20T06:50:16;76.90;;;72.50;;
1140;SDS011;559;48.628;8.924;2023-12-20T06:52:43;77.32;;;73.00;;
1140;SDS011;559;48.628;8.924;2023-12-20T06:55:10;76.53;;;72.18;;
1140;SDS011;559;48.628;8.924;2023-12-20T06:57:36;81.53;;;77.07;;
1140;SDS011;559;48.628;8.924;2023-12-20T07:00:03;81.93;;;77.43;;
1140;SDS011;559;48.628;8.924;2023-12-20T07:02:31;87.30;;;82.72;;
1140;SDS011;559;48.628;8.924;2023-12-20T07:04:58;81.93;;;77.53;;
1140;SDS011;559;48.628;8.924;2023-12-20T07:07:24;83.40;;;79.00;;
1140;SDS011;559;48.628;8.924;2023-12-20T07:09:52;87.55;;;82.90;;
1140;SDS011;559;48.628;8.924;2023-12-20T07:12:19;93.95;;;89.25;;
1140;SDS011;559;48.628;8.924;2023-12-20T07:14:45;88.07;;;83.68;;
1140;SDS011;559;48.628;8.924;2023-12-20T07:17:12;86.70;;;82.38;;
1140;SDS011;559;48.628;8.924;2023-12-20T07:19:39;85.55;;;81.05;;
1140;SDS011;559;48.628;8.924;2023-12-20T07:22:06;83.65;;;79.25;;
1140;SDS011;559;48.628;8.924;2023-12-20T07:24:33;82.75;;;78.40;;
1140;SDS011;559;48.628;8.924;2023-12-20T07:27:00;85.38;;;80.97;;
1140;SDS011;559;48.628;8.924;2023-12-20T07:29:27;81.93;;;77.63;;
1140;SDS011;559;48.628;8.924;2023-12-20T07:31:53;80.82;;;76.43;;
1140;SDS011;559;48.628;8.924;2023-12-20T07:34:20;82.63;;;78.22;;
1140;SDS011;559;48.628;8.924;2023-12-20T07:36:46;83.55;;;79.25;;
1140;SDS011;559;48.628;8.924;2023-12-20T07:39:13;80.80;;;76.45;;
1140;SDS011;559;48.628;8.924;2023-12-20T07:41:40;77.20;;;72.80;;
1140;SDS011;559;48.628;8.924;2023-12-20T07:44:08;77.57;;;73.28;;
1140;SDS011;559;48.628;8.924;2023-12-20T07:46:34;74.03;;;69.78;;
1140;SDS011;559;48.628;8.924;2023-12-20T07:49:01;78.00;;;73.30;;
1140;SDS011;559;48.628;8.924;2023-12-20T07:51:27;83.22;;;78.55;;
1140;SDS011;559;48.628;8.924;2023-12-20T07:53:54;83.07;;;78.20;;
1140;SDS011;559;48.628;8.924;2023-12-20T07:56:20;79.50;;;74.78;;
1140;SDS011;559;48.628;8.924;2023-12-20T07:58:47;77.05;;;72.38;;
1140;SDS011;559;48.628;8.924;2023-12-20T08:01:15;76.18;;;71.63;;
1140;SDS011;559;48.628;8.924;2023-12-20T08:03:42;70.10;;;65.65;;
1140;SDS011;559;48.628;8.924;2023-12-20T08:06:08;70.20;;;65.80;;
1140;SDS011;559;48.628;8.924;2023-12-20T08:08:35;69.90;;;65.32;;
1140;SDS011;559;48.628;8.924;2023-12-20T08:11:01;73.85;;;69.25;;
1140;SDS011;559;48.628;8.924;2023-12-20T08:13:28;72.45;;;68.05;;
1140;SDS011;559;48.628;8.924;2023-12-20T08:15:54;71.57;;;67.07;;
1140;SDS011;559;48.628;8.924;2023-12-20T08:18:23;74.88;;;70.28;;
1140;SDS011;559;48.628;8.924;2023-12-20T08:20:49;71.00;;;66.47;;
1140;SDS011;559;48.628;8.924;2023-12-20T08:23:18;75.18;;;70.60;;
1140;SDS011;559;48.628;8.924;2023-12-20T08:25:45;72.78;;;68.28;;
1140;SDS011;559;48.628;8.924;2023-12-20T08:28:12;70.22;;;65.63;;
1140;SDS011;559;48.628;8.924;2023-12-20T08:30:38;77.00;;;72.40;;
1140;SDS011;559;48.628;8.924;2023-12-20T08:33:06;73.18;;;68.70;;
1140;SDS011;559;48.628;8.924;2023-12-20T08:35:37;70.63;;;66.13;;
1140;SDS011;559;48.628;8.924;2023-12-20T08:38:04;66.90;;;62.50;;
1140;SDS011;559;48.628;8.924;2023-12-20T08:40:30;72.13;;;67.53;;
1140;SDS011;559;48.628;8.924;2023-12-20T08:42:56;76.43;;;71.63;;
1140;SDS011;559;48.628;8.924;2023-12-20T08:45:23;70.47;;;66.07;;
1140;SDS011;559;48.628;8.924;2023-12-20T08:47:49;68.20;;;64.20;;
1140;SDS011;559;48.628;8.924;2023-12-20T08:50:16;64.15;;;59.67;;
1140;SDS011;559;48.628;8.924;2023-12-20T08:52:44;63.28;;;59.38;;
1140;SDS011;559;48.628;8.924;2023-12-20T08:55:11;57.00;;;53.60;;
1140;SDS011;559;48.628;8.924;2023-12-20T08:57:37;55.78;;;52.50;;
1140;SDS011;559;48.628;8.924;2023-12-20T09:00:05;52.80;;;49.67;;
1140;SDS011;559;48.628;8.924;2023-12-20T09:02:32;51.58;;;48.65;;
1140;SDS011;559;48.628;8.924;2023-12-20T09:05:01;51.00;;;47.97;;
1140;SDS011;559;48.628;8.924;2023-12-20T09:07:27;49.67;;;46.78;;
1140;SDS011;559;48.628;8.924;2023-12-20T09:09:56;48.45;;;44.70;;
1140;SDS011;559;48.628;8.924;2023-12-20T09:12:23;46.40;;;44.00;;
1140;SDS011;559;48.628;8.924;2023-12-20T09:14:51;46.22;;;43.85;;
1140;SDS011;559;48.628;8.924;2023-12-20T09:17:18;47.10;;;44.50;;
1140;SDS011;559;48.628;8.924;2023-12-20T09:19:45;45.30;;;42.97;;
1140;SDS011;559;48.628;8.924;2023-12-20T09:22:12;44.10;;;41.60;;
1140;SDS011;559;48.628;8.924;2023-12-20T09:24:38;43.85;;;41.55;;
1140;SDS011;559;48.628;8.924;2023-12-20T09:27:06;44.22;;;41.92;;
1140;SDS011;559;48.628;8.924;2023-12-20T09:29:33;45.20;;;42.90;;
1140;SDS011;559;48.628;8.924;2023-12-20T09:31:59;48.15;;;45.65;;
1140;SDS011;559;48.628;8.924;2023-12-20T09:34:26;45.03;;;42.72;;
1140;SDS011;559;48.628;8.924;2023-12-20T09:36:52;44.95;;;42.75;;
1140;SDS011;559;48.628;8.924;2023-12-20T09:39:19;44.13;;;41.58;;
1140;SDS011;559;48.628;8.924;2023-12-20T09:41:49;43.58;;;41.13;;
1140;SDS011;559;48.628;8.924;2023-12-20T09:44:23;43.25;;;40.92;;
1140;SDS011;559;48.628;8.924;2023-12-20T09:46:50;43.78;;;41.67;;
1140;SDS011;559;48.628;8.924;2023-12-20T09:49:17;41.78;;;39.67;;
1140;SDS011;559;48.628;8.924;2023-12-20T09:51:43;42.15;;;39.63;;
1140;SDS011;559;48.628;8.924;2023-12-20T09:54:11;42.17;;;40.08;;
1140;SDS011;559;48.628;8.924;2023-12-20T09:56:38;41.65;;;39.65;;
1140;SDS011;559;48.628;8.924;2023-12-20T09:59:05;40.85;;;38.90;;
1140;SDS011;559;48.628;8.924;2023-12-20T10:01:33;41.65;;;39.75;;
1140;SDS011;559;48.628;8.924;2023-12-20T10:04:00;41.50;;;39.60;;
1140;SDS011;559;48.628;8.924;2023-12-20T10:06:27;41.72;;;39.80;;
1140;SDS011;559;48.628;8.924;2023-12-20T10:08:54;41.47;;;39.58;;
1140;SDS011;559;48.628;8.924;2023-12-20T10:11:20;41.40;;;39.53;;
1140;SDS011;559;48.628;8.924;2023-12-20T10:13:47;41.05;;;39.13;;
1140;SDS011;559;48.628;8.924;2023-12-20T10:16:14;38.88;;;37.28;;
1140;SDS011;559;48.628;8.924;2023-12-20T10:18:42;39.97;;;38.13;;
1140;SDS011;559;48.628;8.924;2023-12-20T10:21:08;38.75;;;37.35;;
1140;SDS011;559;48.628;8.924;2023-12-20T10:23:36;38.08;;;36.78;;
1140;SDS011;559;48.628;8.924;2023-12-20T10:26:04;37.67;;;36.47;;
1140;SDS011;559;48.628;8.924;2023-12-20T10:28:33;34.05;;;33.05;;
1140;SDS011;559;48.628;8.924;2023-12-20T10:31:00;32.45;;;31.35;;
1140;SDS011;559;48.628;8.924;2023-12-20T10:33:27;33.28;;;32.17;;
1140;SDS011;559;48.628;8.924;2023-12-20T10:35:56;34.38;;;33.20;;
1140;SDS011;559;48.628;8.924;2023-12-20T10:38:22;31.77;;;30.88;;
1140;SDS011;559;48.628;8.924;2023-12-20T10:40:49;30.95;;;29.85;;
1140;SDS011;559;48.628;8.924;2023-12-20T10:43:20;32.25;;;31.02;;
1140;SDS011;559;48.628;8.924;2023-12-20T10:45:47;33.10;;;32.03;;
1140;SDS011;559;48.628;8.924;2023-12-20T10:48:14;31.30;;;30.30;;
1140;SDS011;559;48.628;8.924;2023-12-20T10:50:41;31.60;;;30.40;;
1140;SDS011;559;48.628;8.924;2023-12-20T10:53:10;30.42;;;29.50;;
1140;SDS011;559;48.628;8.924;2023-12-20T10:55:37;33.65;;;32.60;;
1140;SDS011;559;48.628;8.924;2023-12-20T10:58:06;31.55;;;30.52;;
1140;SDS011;559;48.628;8.924;2023-12-20T11:00:34;32.95;;;31.65;;
1140;SDS011;559;48.628;8.924;2023-12-20T11:03:03;31.38;;;30.48;;
1140;SDS011;559;48.628;8.924;2023-12-20T11:05:33;28.70;;;27.90;;
1140;SDS011;559;48.628;8.924;2023-12-20T11:08:07;32.38;;;31.05;;
1140;SDS011;559;48.628;8.924;2023-12-20T11:10:43;29.88;;;28.88;;
1140;SDS011;559;48.628;8.924;2023-12-20T11:13:16;34.45;;;32.08;;
1140;SDS011;559;48.628;8.924;2023-12-20T11:15:45;34.28;;;33.13;;
1140;SDS011;559;48.628;8.924;2023-12-20T11:18:12;33.13;;;31.80;;
1140;SDS011;559;48.628;8.924;2023-12-20T11:20:39;37.28;;;35.17;;
1140;SDS011;559;48.628;8.924;2023-12-20T11:23:06;34.35;;;32.67;;
1140;SDS011;559;48.628;8.924;2023-12-20T11:25:47;32.13;;;30.40;;
1140;SDS011;559;48.628;8.924;2023-12-20T11:28:14;29.20;;;28.13;;
1140;SDS011;559;48.628;8.924;2023-12-20T11:30:45;30.65;;;29.35;;
1140;SDS011;559;48.628;8.924;2023-12-20T11:33:12;29.92;;;28.70;;
1140;SDS011;559;48.628;8.924;2023-12-20T11:35:39;28.60;;;27.60;;
1140;SDS011;559;48.628;8.924;2023-12-20T11:38:07;30.17;;;28.98;;
1140;SDS011;559;48.628;8.924;2023-12-20T11:40:34;23.35;;;22.58;;
1140;SDS011;559;48.628;8.924;2023-12-20T11:43:02;24.25;;;23.55;;
1140;SDS011;559;48.628;8.924;2023-12-20T11:45:29;27.42;;;26.63;;
1140;SDS011;559;48.628;8.924;2023-12-20T11:47:57;28.63;;;27.35;;
1140;SDS011;559;48.628;8.924;2023-12-20T11:50:24;29.30;;;28.40;;
1140;SDS011;559;48.628;8.924;2023-12-20T11:52:51;26.90;;;25.95;;
1140;SDS011;559;48.628;8.924;2023-12-20T11:55:18;25.67;;;24.73;;
1140;SDS011;559;48.628;8.924;2023-12-20T11:57:45;27.13;;;26.13;;
1140;SDS011;559;48.628;8.924;2023-12-20T12:00:13;29.33;;;28.35;;
1140;SDS011;559;48.628;8.924;2023-12-20T12:02:40;32.70;;;31.52;;
1140;SDS011;559;48.628;8.924;2023-12-20T12:05:07;31.27;;;30.17;;
1140;SDS011;559;48.628;8.924;2023-12-20T12:07:34;32.38;;;31.17;;
1140;SDS011;559;48.628;8.924;2023-12-20T12:10:01;32.78;;;31.58;;
1140;SDS011;559;48.628;8.924;2023-12-20T12:12:28;32.75;;;31.65;;
1140;SDS011;559;48.628;8.924;2023-12-20T12:14:55;32.35;;;31.45;;
1140;SDS011;559;48.628;8.924;2023-12-20T12:17:24;31.88;;;30.58;;
1140;SDS011;559;48.628;8.924;2023-12-20T12:19:50;33.03;;;31.73;;
1140;SDS011;559;48.628;8.924;2023-12-20T12:22:17;32.97;;;31.98;;
1140;SDS011;559;48.628;8.924;2023-12-20T12:24:45;33.00;;;31.45;;
1140;SDS011;559;48.628;8.924;2023-12-20T12:27:12;31.17;;;29.90;;
1140;SDS011;559;48.628;8.924;2023-12-20T12:29:40;29.80;;;28.90;;
1140;SDS011;559;48.628;8.924;2023-12-20T12:32:07;29.98;;;28.85;;
1140;SDS011;559;48.628;8.924;2023-12-20T12:34:36;29.45;;;28.33;;
1140;SDS011;559;48.628;8.924;2023-12-20T12:37:03;27.92;;;27.02;;
1140;SDS011;559;48.628;8.924;2023-12-20T12:39:30;31.02;;;29.92;;
1140;SDS011;559;48.628;8.924;2023-12-20T12:41:56;29.23;;;28.33;;
1140;SDS011;559;48.628;8.924;2023-12-20T12:44:23;26.50;;;25.60;;
1140;SDS011;559;48.628;8.924;2023-12-20T12:46:50;29.45;;;28.00;;
1140;SDS011;559;48.628;8.924;2023-12-20T12:49:18;29.38;;;27.98;;
1140;SDS011;559;48.628;8.924;2023-12-20T12:51:46;30.95;;;29.15;;
1140;SDS011;559;48.628;8.924;2023-12-20T12:54:13;26.88;;;26.08;;
1140;SDS011;559;48.628;8.924;2023-12-20T12:56:41;28.67;;;27.40;;
1140;SDS011;559;48.628;8.924;2023-12-20T12:59:08;26.83;;;26.02;;
1140;SDS011;559;48.628;8.924;2023-12-20T13:01:34;28.13;;;27.13;;
1140;SDS011;559;48.628;8.924;2023-12-20T13:04:01;28.02;;;27.13;;
1140;SDS011;559;48.628;8.924;2023-12-20T13:06:31;27.88;;;26.95;;
1140;SDS011;559;48.628;8.924;2023-12-20T13:08:59;27.67;;;26.80;;
1140;SDS011;559;48.628;8.924;2023-12-20T13:11:25;32.40;;;30.63;;
1140;SDS011;559;48.628;8.924;2023-12-20T13:13:52;31.80;;;30.25;;
1140;SDS011;559;48.628;8.924;2023-12-20T13:16:18;29.00;;;28.10;;
1140;SDS011;559;48.628;8.924;2023-12-20T13:18:45;31.08;;;29.98;;
1140;SDS011;559;48.628;8.924;2023-12-20T13:21:11;31.83;;;30.80;;
1140;SDS011;559;48.628;8.924;2023-12-20T13:23:38;31.90;;;30.95;;
1140;SDS011;559;48.628;8.924;2023-12-20T13:26:06;30.73;;;29.60;;
1140;SDS011;559;48.628;8.924;2023-12-20T13:28:33;31.27;;;30.08;;
1140;SDS011;559;48.628;8.924;2023-12-20T13:30:59;32.50;;;31.52;;
1140;SDS011;559;48.628;8.924;2023-12-20T13:33:26;32.72;;;31.35;;
1140;SDS011;559;48.628;8.924;2023-12-20T13:35:52;31.77;;;30.75;;
1140;SDS011;559;48.628;8.924;2023-12-20T13:38:19;30.15;;;29.15;;
1140;SDS011;559;48.628;8.924;2023-12-20T13:40:45;33.85;;;32.85;;
1140;SDS011;559;48.628;8.924;2023-12-20T13:43:13;33.90;;;32.60;;
1140;SDS011;559;48.628;8.924;2023-12-20T13:45:43;32.45;;;31.35;;
1140;SDS011;559;48.628;8.924;2023-12-20T13:48:09;35.35;;;34.22;;
1140;SDS011;559;48.628;8.924;2023-12-20T13:50:39;35.05;;;33.75;;
1140;SDS011;559;48.628;8.924;2023-12-20T13:53:06;34.70;;;33.50;;
1140;SDS011;559;48.628;8.924;2023-12-20T13:55:36;33.70;;;32.22;;
1140;SDS011;559;48.628;8.924;2023-12-20T13:58:10;37.75;;;36.45;;
1140;SDS011;559;48.628;8.924;2023-12-20T14:08:28;34.75;;;33.65;;
1140;SDS011;559;48.628;8.924;2023-12-20T14:11:16;35.45;;;34.05;;
1140;SDS011;559;48.628;8.924;2023-12-20T14:13:47;35.35;;;34.15;;
1140;SDS011;559;48.628;8.924;2023-12-20T14:16:23;35.60;;;34.50;;
1140;SDS011;559;48.628;8.924;2023-12-20T14:47:33;43.45;;;41.67;;
1140;SDS011;559;48.628;8.924;2023-12-20T15:00:22;46.40;;;44.40;;
1140;SDS011;559;48.628;8.924;2023-12-20T15:07:04;48.13;;;45.45;;
1140;SDS011;559;48.628;8.924;2023-12-20T15:55:19;51.10;;;48.40;;
1140;SDS011;559;48.628;8.924;2023-12-20T16:34:58;60.38;;;56.50;;
1140;SDS011;559;48.628;8.924;2023-12-20T16:39:46;57.33;;;54.03;;
1140;SDS011;559;48.628;8.924;2023-12-20T17:03:44;59.97;;;56.55;;
1140;SDS011;559;48.628;8.924;2023-12-20T17:11:21;68.15;;;63.28;;
1140;SDS011;559;48.628;8.924;2023-12-20T21:47:08;66.78;;;63.40;;
1140;SDS011;559;48.628;8.924;2023-12-20T22:00:20;61.65;;;58.50;;
1140;SDS011;559;48.628;8.924;2023-12-20T22:03:14;60.15;;;56.85;;
1140;SDS011;559;48.628;8.924;2023-12-20T22:06:03;63.47;;;60.28;;
1140;SDS011;559;48.628;8.924;2023-12-20T22:09:19;65.35;;;61.97;;
1140;SDS011;559;48.628;8.924;2023-12-20T22:34:39;69.97;;;66.38;;
1140;SDS011;559;48.628;8.924;2023-12-20T22:37:13;66.38;;;62.90;;
1140;SDS011;559;48.628;8.924;2023-12-20T22:40:16;66.68;;;62.90;;
1140;SDS011;559;48.628;8.924;2023-12-20T22:43:42;66.47;;;62.88;;
1140;SDS011;559;48.628;8.924;2023-12-20T22:50:46;62.55;;;59.05;;
1140;SDS011;559;48.628;8.924;2023-12-20T23:03:58;62.13;;;58.72;;
1140;SDS011;559;48.628;8.924;2023-12-20T23:07:11;61.72;;;58.22;;
1140;SDS011;559;48.628;8.924;2023-12-20T23:14:37;60.30;;;56.97;;
1140;SDS011;559;48.628;8.924;2023-12-20T23:21:06;59.10;;;55.90;;
1140;SDS011;559;48.628;8.924;2023-12-20T23:30:09;58.10;;;55.10;;
1140;SDS011;559;48.628;8.924;2023-12-20T23:46:54;59.42;;;56.33;;
1140;SDS011;559;48.628;8.924;2023-12-20T23:53:58;57.85;;;54.83;;
